createdAt,value
2022-09-22T00:00:53.155Z,0
2022-09-22T00:01:53.798Z,0
2022-09-22T00:02:53.481Z,0
2022-09-22T00:03:54.687Z,0
2022-09-22T00:04:54.276Z,0
2022-09-22T00:05:54.910Z,0
2022-09-22T00:06:55.537Z,0
2022-09-22T00:07:56.169Z,0
2022-09-22T00:08:57.384Z,0
2022-09-22T00:09:57.962Z,0
2022-09-22T00:10:58.209Z,0
2022-09-22T00:11:58.689Z,0
2022-09-22T00:12:59.293Z,0
2022-09-22T00:14:00.201Z,0
2022-09-22T00:15:00.093Z,0
2022-09-22T00:16:01.413Z,0
2022-09-22T00:17:01.622Z,0
2022-09-22T00:18:02.225Z,0
2022-09-22T00:19:03.112Z,0
2022-09-22T00:20:03.512Z,0
2022-09-22T00:21:03.842Z,0
2022-09-22T00:22:04.450Z,0
2022-09-22T00:23:05.641Z,0
2022-09-22T00:24:05.937Z,0
2022-09-22T00:25:06.638Z,0
2022-09-22T00:26:07.854Z,0
2022-09-22T00:27:07.760Z,0
2022-09-22T00:28:08.970Z,0
2022-09-22T00:29:09.601Z,0
2022-09-22T00:30:10.307Z,0
2022-09-22T00:31:11.764Z,0
2022-09-22T00:32:18.056Z,0
2022-09-22T00:33:12.667Z,0
2022-09-22T00:34:13.569Z,0
2022-09-22T00:35:13.184Z,0
2022-09-22T00:36:14.069Z,0
2022-09-22T00:37:14.670Z,0
2022-09-22T00:38:15.022Z,0
2022-09-22T00:39:15.628Z,0
2022-09-22T00:40:16.667Z,0
2022-09-22T00:41:16.704Z,0
2022-09-22T00:42:17.316Z,0
2022-09-22T00:43:18.220Z,0
2022-09-22T00:44:18.699Z,0
2022-09-22T00:45:18.708Z,0
2022-09-22T00:46:19.168Z,0
2022-09-22T00:47:20.138Z,0
2022-09-22T00:48:21.045Z,0
2022-09-22T00:49:21.651Z,0
2022-09-22T00:50:22.416Z,0
2022-09-22T00:51:22.760Z,0
2022-09-22T00:52:23.951Z,0
2022-09-22T00:53:24.570Z,0
2022-09-22T00:54:25.175Z,0
2022-09-22T00:55:25.819Z,0
2022-09-22T00:56:26.020Z,0
2022-09-22T00:57:25.692Z,0
2022-09-22T00:58:26.301Z,0
2022-09-22T00:59:27.184Z,0
2022-09-22T01:00:28.192Z,0
2022-09-22T01:01:29.885Z,0
2022-09-22T01:02:29.329Z,0
2022-09-22T01:03:35.756Z,0
2022-09-22T01:04:30.666Z,0
2022-09-22T01:05:31.583Z,0
2022-09-22T01:06:32.211Z,0
2022-09-22T01:07:32.798Z,0
2022-09-22T01:08:33.740Z,0
2022-09-22T01:09:34.755Z,0
2022-09-22T01:10:35.194Z,0
2022-09-22T01:11:36.102Z,0
2022-09-22T01:12:36.703Z,0
2022-09-22T01:13:37.325Z,0
2022-09-22T01:14:37.632Z,0
2022-09-22T01:15:38.567Z,0
2022-09-22T01:16:40.013Z,0
2022-09-22T01:17:40.056Z,0
2022-09-22T01:18:41.535Z,0
2022-09-22T01:19:41.731Z,0
2022-09-22T01:20:42.130Z,0
2022-09-22T01:21:43.015Z,0
2022-09-22T01:22:43.210Z,0
2022-09-22T01:23:44.132Z,0
2022-09-22T01:24:44.721Z,0
2022-09-22T01:25:45.352Z,0
2022-09-22T01:26:45.846Z,0
2022-09-22T01:27:46.023Z,0
2022-09-22T01:28:45.928Z,0
2022-09-22T01:29:46.837Z,0
2022-09-22T01:30:46.959Z,0
2022-09-22T01:31:48.306Z,0
2022-09-22T01:32:48.227Z,0
2022-09-22T01:33:48.838Z,0
2022-09-22T01:34:49.163Z,0
2022-09-22T01:35:50.072Z,0
2022-09-22T01:36:49.954Z,0
2022-09-22T01:37:50.564Z,0
2022-09-22T01:38:51.483Z,0
2022-09-22T01:39:52.166Z,0
2022-09-22T01:40:53.379Z,0
2022-09-22T01:41:53.885Z,0
2022-09-22T01:42:53.791Z,0
2022-09-22T01:43:54.987Z,0
2022-09-22T01:44:54.595Z,0
2022-09-22T01:45:55.584Z,0
2022-09-22T01:46:55.482Z,0
2022-09-22T01:47:56.390Z,0
2022-09-22T01:48:56.002Z,0
2022-09-22T01:49:56.617Z,0
2022-09-22T01:50:57.588Z,0
2022-09-22T01:51:58.219Z,0
2022-09-22T01:52:59.143Z,0
2022-09-22T01:53:59.530Z,0
2022-09-22T01:55:00.549Z,0
2022-09-22T01:56:00.899Z,0
2022-09-22T01:57:01.812Z,0
2022-09-22T01:58:02.992Z,0
2022-09-22T01:59:02.899Z,0
2022-09-22T02:00:03.903Z,0
2022-09-22T02:01:04.594Z,0
2022-09-22T02:02:05.794Z,0
2022-09-22T02:03:06.018Z,0
2022-09-22T02:04:06.352Z,0
2022-09-22T02:05:07.254Z,0
2022-09-22T02:06:08.748Z,0
2022-09-22T02:07:08.631Z,0
2022-09-22T02:08:08.546Z,0
2022-09-22T02:09:09.465Z,0
2022-09-22T02:10:10.076Z,0
2022-09-22T02:11:10.791Z,0
2022-09-22T02:12:12.000Z,0
2022-09-22T02:13:12.601Z,0
2022-09-22T02:14:13.624Z,0
2022-09-22T02:15:14.530Z,0
2022-09-22T02:16:14.454Z,0
2022-09-22T02:17:15.202Z,0
2022-09-22T02:18:16.107Z,0
2022-09-22T02:19:24.009Z,0
2022-09-22T02:20:17.496Z,0
2022-09-22T02:21:17.927Z,0
2022-09-22T02:22:18.128Z,0
2022-09-22T02:23:18.754Z,0
2022-09-22T02:24:19.675Z,0
2022-09-22T02:25:19.861Z,0
2022-09-22T02:26:19.824Z,0
2022-09-22T02:27:20.042Z,0
2022-09-22T02:28:20.949Z,0
2022-09-22T02:29:21.274Z,0
2022-09-22T02:30:22.484Z,0
2022-09-22T02:31:32.456Z,0
2022-09-22T02:32:33.745Z,0
2022-09-22T02:33:38.044Z,0
2022-09-22T02:34:34.118Z,0
2022-09-22T02:35:34.703Z,0
2022-09-22T02:36:35.597Z,0
2022-09-22T02:37:36.499Z,0
2022-09-22T02:38:37.081Z,0
2022-09-22T02:39:37.998Z,0
2022-09-22T02:40:39.097Z,0
2022-09-22T02:41:39.930Z,0
2022-09-22T02:42:39.842Z,0
2022-09-22T02:43:40.424Z,0
2022-09-22T02:44:41.305Z,0
2022-09-22T02:45:41.631Z,0
2022-09-22T02:46:43.130Z,0
2022-09-22T02:47:42.803Z,0
2022-09-22T02:48:43.988Z,0
2022-09-22T02:49:44.598Z,0
2022-09-22T02:50:44.629Z,0
2022-09-22T02:51:46.055Z,0
2022-09-22T02:52:46.383Z,0
2022-09-22T02:53:47.273Z,0
2022-09-22T02:54:47.465Z,0
2022-09-22T02:55:48.367Z,0
2022-09-22T02:56:49.571Z,0
2022-09-22T02:57:49.783Z,0
2022-09-22T02:58:49.394Z,0
2022-09-22T02:59:50.466Z,0
2022-09-22T03:00:50.770Z,0
2022-09-22T03:01:52.264Z,0
2022-09-22T03:02:51.941Z,0
2022-09-22T03:03:52.549Z,0
2022-09-22T03:04:53.345Z,0
2022-09-22T03:05:54.410Z,0
2022-09-22T03:06:55.603Z,0
2022-09-22T03:07:56.510Z,0
2022-09-22T03:08:56.420Z,0
2022-09-22T03:09:57.072Z,0
2022-09-22T03:10:57.681Z,0
2022-09-22T03:11:58.981Z,0
2022-09-22T03:13:26.274Z,0
2022-09-22T03:13:59.907Z,0
2022-09-22T03:15:01.127Z,0
2022-09-22T03:16:02.224Z,0
2022-09-22T03:17:02.474Z,0
2022-09-22T03:18:02.388Z,0
2022-09-22T03:19:02.717Z,0
2022-09-22T03:20:03.353Z,0
2022-09-22T03:21:03.937Z,0
2022-09-22T03:22:04.932Z,0
2022-09-22T03:23:05.534Z,0
2022-09-22T03:24:05.795Z,0
2022-09-22T03:25:07.051Z,0
2022-09-22T03:26:07.679Z,0
2022-09-22T03:27:07.945Z,0
2022-09-22T03:28:07.868Z,0
2022-09-22T03:29:09.066Z,0
2022-09-22T03:30:08.671Z,0
2022-09-22T03:31:09.890Z,0
2022-09-22T03:32:10.021Z,0
2022-09-22T03:33:10.333Z,0
2022-09-22T03:34:11.515Z,0
2022-09-22T03:35:12.425Z,0
2022-09-22T03:36:12.909Z,0
2022-09-22T03:37:13.168Z,0
2022-09-22T03:38:12.499Z,0
2022-09-22T03:39:14.407Z,0
2022-09-22T03:40:14.390Z,0
2022-09-22T03:41:14.376Z,0
2022-09-22T03:42:14.807Z,0
2022-09-22T03:43:22.066Z,0
2022-09-22T03:44:16.277Z,0
2022-09-22T03:45:16.885Z,0
2022-09-22T03:46:16.982Z,0
2022-09-22T03:47:17.070Z,0
2022-09-22T03:48:18.547Z,0
2022-09-22T03:49:18.854Z,0
2022-09-22T03:50:19.760Z,0
2022-09-22T03:51:20.370Z,0
2022-09-22T03:52:21.370Z,0
2022-09-22T03:53:21.857Z,0
2022-09-22T03:54:21.766Z,0
2022-09-22T03:55:22.954Z,0
2022-09-22T03:56:22.858Z,0
2022-09-22T03:57:23.196Z,0
2022-09-22T03:58:24.400Z,0
2022-09-22T03:59:25.601Z,0
2022-09-22T04:00:25.781Z,0
2022-09-22T04:01:26.698Z,0
2022-09-22T04:02:27.533Z,0
2022-09-22T04:03:27.857Z,0
2022-09-22T04:04:28.776Z,0
2022-09-22T04:05:29.683Z,0
2022-09-22T04:06:29.994Z,0
2022-09-22T04:07:30.613Z,0
2022-09-22T04:08:31.216Z,0
2022-09-22T04:09:31.127Z,0
2022-09-22T04:10:31.746Z,0
2022-09-22T04:11:31.630Z,0
2022-09-22T04:12:32.072Z,0
2022-09-22T04:13:33.573Z,0
2022-09-22T04:14:33.691Z,0
2022-09-22T04:15:33.311Z,0
2022-09-22T04:16:35.198Z,0
2022-09-22T04:17:35.216Z,0
2022-09-22T04:18:36.414Z,0
2022-09-22T04:19:36.061Z,0
2022-09-22T04:20:36.961Z,0
2022-09-22T04:21:36.993Z,0
2022-09-22T04:22:37.706Z,0
2022-09-22T04:23:37.907Z,0
2022-09-22T04:24:38.109Z,0
2022-09-22T04:25:38.608Z,0
2022-09-22T04:26:38.224Z,0
2022-09-22T04:27:38.943Z,0
2022-09-22T04:28:39.125Z,0
2022-09-22T04:29:39.735Z,0
2022-09-22T04:30:40.709Z,0
2022-09-22T04:31:40.718Z,0
2022-09-22T04:32:41.702Z,0
2022-09-22T04:33:42.023Z,0
2022-09-22T04:34:42.930Z,0
2022-09-22T04:35:42.529Z,0
2022-09-22T04:36:43.711Z,0
2022-09-22T04:37:43.904Z,0
2022-09-22T04:38:44.800Z,0
2022-09-22T04:39:45.155Z,0
2022-09-22T04:40:46.650Z,0
2022-09-22T04:41:46.880Z,0
2022-09-22T04:42:47.312Z,4
2022-09-22T04:43:48.823Z,4
2022-09-22T04:44:49.018Z,0
2022-09-22T04:45:51.421Z,0
2022-09-22T04:46:50.383Z,4
2022-09-22T04:47:51.397Z,0
2022-09-22T04:48:52.599Z,4
2022-09-22T04:49:52.228Z,4
2022-09-22T04:50:58.949Z,4
2022-09-22T04:51:53.839Z,8
2022-09-22T04:52:54.813Z,4
2022-09-22T04:53:55.722Z,8
2022-09-22T04:54:56.356Z,8
2022-09-22T04:55:57.265Z,8
2022-09-22T04:56:57.746Z,12
2022-09-22T04:57:58.394Z,12
2022-09-22T04:58:58.888Z,12
2022-09-22T04:59:59.496Z,12
2022-09-22T05:00:59.993Z,16
2022-09-22T05:02:00.375Z,16
2022-09-22T05:03:00.685Z,20
2022-09-22T05:04:00.080Z,20
2022-09-22T05:05:01.118Z,24
2022-09-22T05:06:02.354Z,28
2022-09-22T05:07:02.236Z,32
2022-09-22T05:08:02.425Z,32
2022-09-22T05:09:03.380Z,36
2022-09-22T05:10:04.311Z,36
2022-09-22T05:11:04.227Z,40
2022-09-22T05:12:04.530Z,40
2022-09-22T05:13:05.852Z,48
2022-09-22T05:14:06.074Z,48
2022-09-22T05:15:05.977Z,52
2022-09-22T05:16:07.138Z,56
2022-09-22T05:17:07.444Z,56
2022-09-22T05:18:07.779Z,60
2022-09-22T05:19:08.966Z,64
2022-09-22T05:20:08.865Z,68
2022-09-22T05:21:09.776Z,72
2022-09-22T05:22:10.962Z,76
2022-09-22T05:23:11.667Z,80
2022-09-22T05:24:12.385Z,84
2022-09-22T05:25:12.271Z,88
2022-09-22T05:26:13.490Z,88
2022-09-22T05:27:14.095Z,92
2022-09-22T05:28:14.318Z,96
2022-09-22T05:29:14.679Z,100
2022-09-22T05:30:15.036Z,104
2022-09-22T05:31:16.306Z,104
2022-09-22T05:32:17.336Z,112
2022-09-22T05:33:18.324Z,112
2022-09-22T05:34:18.805Z,120
2022-09-22T05:35:18.416Z,124
2022-09-22T05:36:19.040Z,128
2022-09-22T05:37:19.680Z,136
2022-09-22T05:38:20.881Z,140
2022-09-22T05:39:20.813Z,148
2022-09-22T05:40:22.065Z,156
2022-09-22T05:41:22.625Z,160
2022-09-22T05:42:22.958Z,164
2022-09-22T05:43:23.421Z,172
2022-09-22T05:44:23.619Z,176
2022-09-22T05:45:24.120Z,184
2022-09-22T05:46:25.107Z,188
2022-09-22T05:47:25.731Z,192
2022-09-22T05:48:30.327Z,200
2022-09-22T05:49:27.184Z,208
2022-09-22T05:50:26.810Z,216
2022-09-22T05:51:27.696Z,264
2022-09-22T05:52:29.178Z,600
2022-09-22T05:53:29.925Z,840
2022-09-22T05:54:34.181Z,1032
2022-09-22T05:55:31.097Z,1764
2022-09-22T05:56:32.070Z,2672
2022-09-22T05:57:32.982Z,2820
2022-09-22T05:58:34.215Z,2500
2022-09-22T05:59:34.725Z,2136
2022-09-22T06:00:34.628Z,1772
2022-09-22T06:01:36.450Z,1708
2022-09-22T06:02:37.314Z,1828
2022-09-22T06:03:36.250Z,2048
2022-09-22T06:04:37.142Z,2468
2022-09-22T06:05:39.199Z,2560
2022-09-22T06:06:37.908Z,2252
2022-09-22T06:07:37.219Z,2172
2022-09-22T06:08:38.837Z,2500
2022-09-22T06:09:39.742Z,3172
2022-09-22T06:10:39.634Z,3496
2022-09-22T06:11:40.849Z,3496
2022-09-22T06:12:41.044Z,3640
2022-09-22T06:13:42.356Z,3432
2022-09-22T06:14:42.558Z,2888
2022-09-22T06:15:43.495Z,2452
2022-09-22T06:16:44.327Z,2248
2022-09-22T06:17:44.298Z,1540
2022-09-22T06:18:44.930Z,1004
2022-09-22T06:19:45.844Z,1428
2022-09-22T06:20:46.039Z,1548
2022-09-22T06:21:46.672Z,960
2022-09-22T06:22:47.880Z,652
2022-09-22T06:23:54.026Z,808
2022-09-22T06:24:48.269Z,636
2022-09-22T06:25:49.158Z,452
2022-09-22T06:26:50.082Z,440
2022-09-22T06:27:51.019Z,512
2022-09-22T06:28:51.675Z,516
2022-09-22T06:29:51.874Z,640
2022-09-22T06:30:52.083Z,520
2022-09-22T06:31:52.925Z,620
2022-09-22T06:32:53.955Z,1172
2022-09-22T06:33:54.419Z,1896
2022-09-22T06:34:55.573Z,2244
2022-09-22T06:35:56.213Z,2824
2022-09-22T06:36:56.407Z,3616
2022-09-22T06:37:56.016Z,3988
2022-09-22T06:38:56.640Z,4260
2022-09-22T06:39:57.843Z,4768
2022-09-22T06:40:58.114Z,5096
2022-09-22T06:41:57.777Z,4720
2022-09-22T06:42:58.413Z,4152
2022-09-22T06:43:59.456Z,4304
2022-09-22T06:44:59.679Z,4744
2022-09-22T06:46:00.854Z,4644
2022-09-22T06:47:00.894Z,4152
2022-09-22T06:48:02.231Z,3760
2022-09-22T06:49:01.488Z,3704
2022-09-22T06:50:01.827Z,3432
2022-09-22T06:51:03.018Z,3044
2022-09-22T06:52:03.190Z,2756
2022-09-22T06:53:03.812Z,3016
2022-09-22T06:54:04.376Z,3676
2022-09-22T06:55:04.960Z,4280
2022-09-22T06:56:05.295Z,4632
2022-09-22T06:57:04.944Z,4568
2022-09-22T06:58:05.573Z,4156
2022-09-22T06:59:21.314Z,3448
2022-09-22T07:00:06.658Z,3092
2022-09-22T07:01:15.121Z,2464
2022-09-22T07:02:08.312Z,2172
2022-09-22T07:03:08.829Z,2092
2022-09-22T07:04:08.399Z,2172
2022-09-22T07:05:09.885Z,2384
2022-09-22T07:06:10.525Z,2604
2022-09-22T07:07:10.926Z,2740
2022-09-22T07:08:11.421Z,3060
2022-09-22T07:09:12.185Z,3636
2022-09-22T07:10:12.400Z,3720
2022-09-22T07:11:12.322Z,3476
2022-09-22T07:12:13.520Z,3136
2022-09-22T07:13:14.445Z,2632
2022-09-22T07:14:15.223Z,2328
2022-09-22T07:15:15.743Z,2408
2022-09-22T07:16:16.354Z,2672
2022-09-22T07:17:17.010Z,3180
2022-09-22T07:18:16.907Z,3440
2022-09-22T07:19:18.122Z,3496
2022-09-22T07:20:18.336Z,3288
2022-09-22T07:21:18.898Z,2784
2022-09-22T07:22:19.609Z,2188
2022-09-22T07:23:19.224Z,1752
2022-09-22T07:24:20.380Z,1544
2022-09-22T07:25:20.998Z,1412
2022-09-22T07:26:21.678Z,1368
2022-09-22T07:27:22.608Z,1316
2022-09-22T07:28:23.498Z,1340
2022-09-22T07:29:23.411Z,1380
2022-09-22T07:30:24.363Z,1376
2022-09-22T07:31:28.546Z,1404
2022-09-22T07:32:25.052Z,1396
2022-09-22T07:33:25.538Z,1448
2022-09-22T07:34:26.232Z,1536
2022-09-22T07:35:26.826Z,1800
2022-09-22T07:36:28.020Z,1976
2022-09-22T07:37:28.649Z,1908
2022-09-22T07:38:29.859Z,1848
2022-09-22T07:39:30.202Z,1760
2022-09-22T07:40:31.354Z,1516
2022-09-22T07:41:31.205Z,1324
2022-09-22T07:42:32.426Z,1096
2022-09-22T07:43:32.618Z,996
2022-09-22T07:44:33.267Z,980
2022-09-22T07:45:33.781Z,980
2022-09-22T07:46:33.886Z,1000
2022-09-22T07:47:33.947Z,980
2022-09-22T07:48:34.859Z,936
2022-09-22T07:49:35.446Z,888
2022-09-22T07:50:35.362Z,868
2022-09-22T07:51:35.605Z,880
2022-09-22T07:52:35.798Z,872
2022-09-22T07:53:35.711Z,792
2022-09-22T07:54:37.009Z,744
2022-09-22T07:55:37.495Z,724
2022-09-22T07:56:37.979Z,724
2022-09-22T07:57:37.891Z,720
2022-09-22T07:58:38.520Z,708
2022-09-22T07:59:39.715Z,708
2022-09-22T08:00:41.173Z,720
2022-09-22T08:01:40.228Z,704
2022-09-22T08:02:41.778Z,696
2022-09-22T08:03:41.681Z,696
2022-09-22T08:04:42.094Z,692
2022-09-22T08:05:43.303Z,692
2022-09-22T08:06:43.215Z,692
2022-09-22T08:07:43.413Z,696
2022-09-22T08:08:44.327Z,688
2022-09-22T08:09:44.829Z,692
2022-09-22T08:10:45.027Z,696
2022-09-22T08:11:44.949Z,692
2022-09-22T08:12:45.169Z,696
2022-09-22T08:13:45.764Z,696
2022-09-22T08:14:46.190Z,628
2022-09-22T08:15:47.438Z,680
2022-09-22T08:16:47.834Z,688
2022-09-22T08:17:48.624Z,692
2022-09-22T08:18:48.962Z,688
2022-09-22T08:19:49.868Z,684
2022-09-22T08:20:55.823Z,684
2022-09-22T08:21:59.788Z,680
2022-09-22T08:22:52.000Z,680
2022-09-22T08:23:52.185Z,680
2022-09-22T08:24:53.075Z,684
2022-09-22T08:25:53.282Z,680
2022-09-22T08:26:59.514Z,680
2022-09-22T08:27:54.459Z,676
2022-09-22T08:28:54.961Z,676
2022-09-22T08:29:54.573Z,676
2022-09-22T08:30:56.105Z,676
2022-09-22T08:31:57.158Z,676
2022-09-22T08:32:56.504Z,672
2022-09-22T08:33:57.155Z,672
2022-09-22T08:34:57.960Z,668
2022-09-22T08:35:57.879Z,660
2022-09-22T08:36:59.069Z,656
2022-09-22T08:37:59.293Z,648
2022-09-22T08:38:59.087Z,648
2022-09-22T08:39:59.434Z,648
2022-09-22T08:41:01.144Z,648
2022-09-22T08:42:01.409Z,644
2022-09-22T08:43:01.742Z,664
2022-09-22T08:44:02.948Z,696
2022-09-22T08:45:03.242Z,700
2022-09-22T08:46:04.005Z,668
2022-09-22T08:47:04.851Z,660
2022-09-22T08:48:05.083Z,656
2022-09-22T08:49:06.012Z,648
2022-09-22T08:50:05.664Z,652
2022-09-22T08:51:07.157Z,652
2022-09-22T08:52:07.342Z,656
2022-09-22T08:53:08.558Z,668
2022-09-22T08:54:14.511Z,672
2022-09-22T08:55:09.615Z,672
2022-09-22T08:56:10.541Z,664
2022-09-22T08:57:11.033Z,664
2022-09-22T08:58:11.278Z,676
2022-09-22T08:59:12.469Z,672
2022-09-22T09:00:12.734Z,660
2022-09-22T09:01:13.320Z,664
2022-09-22T09:02:14.080Z,660
2022-09-22T09:03:14.568Z,660
2022-09-22T09:04:14.518Z,656
2022-09-22T09:05:15.605Z,656
2022-09-22T09:06:16.623Z,648
2022-09-22T09:07:16.820Z,652
2022-09-22T09:08:17.035Z,652
2022-09-22T09:09:18.406Z,652
2022-09-22T09:10:18.431Z,652
2022-09-22T09:11:19.012Z,656
2022-09-22T09:12:18.661Z,664
2022-09-22T09:13:19.868Z,680
2022-09-22T09:14:20.362Z,700
2022-09-22T09:15:21.363Z,720
2022-09-22T09:16:22.322Z,764
2022-09-22T09:17:22.533Z,776
2022-09-22T09:18:22.723Z,728
2022-09-22T09:19:23.066Z,728
2022-09-22T09:20:24.273Z,720
2022-09-22T09:21:24.481Z,672
2022-09-22T09:22:24.700Z,652
2022-09-22T09:25:21.776Z,652
2022-09-22T09:25:40.327Z,656
2022-09-22T09:26:40.485Z,656
2022-09-22T09:27:41.424Z,664
2022-09-22T09:28:42.393Z,696
2022-09-22T09:29:43.620Z,684
2022-09-22T09:30:44.071Z,668
2022-09-22T09:31:44.187Z,712
2022-09-22T09:32:44.704Z,716
2022-09-22T09:33:44.661Z,708
2022-09-22T09:34:46.222Z,748
2022-09-22T09:35:50.934Z,744
2022-09-22T09:36:47.507Z,796
2022-09-22T09:37:47.993Z,1052
2022-09-22T09:38:48.485Z,1084
2022-09-22T09:39:48.990Z,1760
2022-09-22T09:40:48.993Z,2404
2022-09-22T09:41:49.914Z,2220
2022-09-22T09:42:50.850Z,2220
2022-09-22T09:43:53.100Z,2384
2022-09-22T09:44:51.864Z,1972
2022-09-22T09:45:51.762Z,1316
2022-09-22T09:46:52.483Z,1472
2022-09-22T09:47:52.394Z,2520
2022-09-22T09:48:52.617Z,2528
2022-09-22T09:49:58.821Z,2272
2022-09-22T09:50:53.818Z,2176
2022-09-22T09:51:54.494Z,1572
2022-09-22T09:52:55.114Z,1364
2022-09-22T09:53:58.433Z,1232
2022-09-22T09:54:56.476Z,1128
2022-09-22T09:55:57.978Z,1112
2022-09-22T09:56:58.379Z,2324
2022-09-22T09:57:59.294Z,5048
2022-09-22T09:59:00.000Z,7320
2022-09-22T10:00:00.732Z,10348
2022-09-22T10:01:00.641Z,11160
2022-09-22T10:02:02.511Z,11536
2022-09-22T10:03:02.748Z,12108
2022-09-22T10:04:02.868Z,12364
2022-09-22T10:05:02.808Z,12488
2022-09-22T10:06:04.047Z,12676
2022-09-22T10:07:07.318Z,12776
2022-09-22T10:08:05.517Z,12828
2022-09-22T10:09:06.097Z,12820
2022-09-22T10:10:07.117Z,12824
2022-09-22T10:11:07.805Z,12860
2022-09-22T10:12:08.318Z,12900
2022-09-22T10:13:08.271Z,12952
2022-09-22T10:14:09.527Z,12956
2022-09-22T10:15:10.029Z,12996
2022-09-22T10:16:10.365Z,13068
2022-09-22T10:17:10.527Z,13088
2022-09-22T10:18:10.556Z,13160
2022-09-22T10:19:11.760Z,13176
2022-09-22T10:20:11.687Z,13216
2022-09-22T10:21:13.604Z,13184
2022-09-22T10:22:13.219Z,13152
2022-09-22T10:24:15.256Z,13180
2022-09-22T10:25:14.948Z,13012
2022-09-22T10:26:15.581Z,13152
2022-09-22T10:27:18.443Z,13068
2022-09-22T10:28:17.686Z,13052
2022-09-22T10:29:18.609Z,13012
2022-09-22T10:30:19.285Z,13024
2022-09-22T10:31:19.477Z,13048
2022-09-22T10:32:20.841Z,13080
2022-09-22T10:33:20.767Z,13040
2022-09-22T10:34:21.694Z,13016
2022-09-22T10:35:22.053Z,12928
2022-09-22T10:36:23.504Z,13000
2022-09-22T10:37:23.587Z,12932
2022-09-22T10:38:24.397Z,12924
2022-09-22T10:39:24.966Z,12840
2022-09-22T10:40:26.244Z,12872
2022-09-22T10:41:26.942Z,12780
2022-09-22T10:42:27.148Z,12236
2022-09-22T10:43:26.864Z,10640
2022-09-22T10:44:55.014Z,8848
2022-09-22T10:45:28.918Z,8912
2022-09-22T10:46:29.880Z,8448
2022-09-22T10:47:33.236Z,8348
2022-09-22T10:48:30.779Z,8624
2022-09-22T10:49:30.400Z,8236
2022-09-22T10:50:31.686Z,9924
2022-09-22T10:51:32.319Z,10332
2022-09-22T10:52:32.663Z,11156
2022-09-22T10:53:33.340Z,11680
2022-09-22T10:54:34.546Z,11724
2022-09-22T10:55:35.183Z,10756
2022-09-22T10:56:35.697Z,7496
2022-09-22T10:57:35.144Z,5196
2022-09-22T10:58:36.775Z,3608
2022-09-22T10:59:38.037Z,3432
2022-09-22T11:00:44.877Z,5564
2022-09-22T11:01:39.594Z,5748
2022-09-22T11:02:39.697Z,3108
2022-09-22T11:03:40.236Z,2296
2022-09-22T11:04:40.952Z,2300
2022-09-22T11:05:40.978Z,2152
2022-09-22T11:06:41.621Z,2252
2022-09-22T11:07:43.054Z,2324
2022-09-22T11:08:42.981Z,2068
2022-09-22T11:09:44.409Z,1596
2022-09-22T11:10:44.332Z,1488
2022-09-22T11:11:48.152Z,1728
2022-09-22T11:12:45.373Z,2128
2022-09-22T11:13:45.872Z,2176
2022-09-22T11:14:46.091Z,3676
2022-09-22T11:15:46.679Z,4144
2022-09-22T11:16:46.382Z,2620
2022-09-22T11:17:51.297Z,1960
2022-09-22T11:18:51.218Z,1624
2022-09-22T11:19:49.437Z,1740
2022-09-22T11:20:50.357Z,1540
2022-09-22T11:21:50.582Z,1316
2022-09-22T11:22:51.076Z,1260
2022-09-22T11:23:50.720Z,1228
2022-09-22T11:24:51.926Z,1188
2022-09-22T11:25:52.266Z,1252
2022-09-22T11:26:53.480Z,1312
2022-09-22T11:27:53.766Z,1532
2022-09-22T11:29:02.884Z,1352
2022-09-22T11:29:55.292Z,1152
2022-09-22T11:30:55.969Z,1124
2022-09-22T11:31:56.563Z,1224
2022-09-22T11:32:56.800Z,1352
2022-09-22T11:33:57.308Z,1764
2022-09-22T11:34:57.954Z,1532
2022-09-22T11:35:59.158Z,1344
2022-09-22T11:37:02.454Z,1092
2022-09-22T11:37:59.180Z,1168
2022-09-22T11:38:59.797Z,1448
2022-09-22T11:40:00.707Z,1356
2022-09-22T11:41:02.532Z,1120
2022-09-22T11:42:02.732Z,1000
2022-09-22T11:43:09.993Z,952
2022-09-22T11:44:09.684Z,976
2022-09-22T11:45:05.323Z,956
2022-09-22T11:46:05.977Z,924
2022-09-22T11:47:07.308Z,944
2022-09-22T11:48:07.066Z,1128
2022-09-22T11:49:08.600Z,1600
2022-09-22T11:50:09.522Z,1672
2022-09-22T11:51:10.145Z,1408
2022-09-22T11:52:12.717Z,1752
2022-09-22T11:53:11.004Z,1496
2022-09-22T11:54:11.589Z,1588
2022-09-22T11:55:12.309Z,1496
2022-09-22T11:56:11.975Z,1356
2022-09-22T11:57:12.913Z,1912
2022-09-22T11:58:13.621Z,2212
2022-09-22T11:59:14.575Z,3600
2022-09-22T12:00:15.493Z,4824
2022-09-22T12:01:22.080Z,6516
2022-09-22T12:02:17.084Z,6880
2022-09-22T12:03:18.320Z,7072
2022-09-22T12:04:17.796Z,7176
2022-09-22T12:05:18.990Z,7088
2022-09-22T12:06:19.225Z,7224
2022-09-22T12:07:19.449Z,7428
2022-09-22T12:08:20.486Z,7508
2022-09-22T12:09:20.706Z,7508
2022-09-22T12:10:21.627Z,7500
2022-09-22T12:11:22.545Z,7584
2022-09-22T12:12:23.251Z,7660
2022-09-22T12:13:23.569Z,7692
2022-09-22T12:14:24.473Z,7668
2022-09-22T12:15:25.118Z,7620
2022-09-22T12:16:26.340Z,7596
2022-09-22T12:17:31.190Z,7608
2022-09-22T12:18:27.575Z,7604
2022-09-22T12:19:27.887Z,7640
2022-09-22T12:20:28.240Z,7804
2022-09-22T12:21:29.737Z,7940
2022-09-22T12:22:30.652Z,8368
2022-09-22T12:23:30.571Z,8452
2022-09-22T12:24:31.510Z,8800
2022-09-22T12:25:55.735Z,8752
2022-09-22T12:26:33.078Z,8768
2022-09-22T12:27:34.008Z,8760
2022-09-22T12:28:33.882Z,8864
2022-09-22T12:29:34.802Z,8888
2022-09-22T12:30:35.415Z,9124
2022-09-22T12:31:36.197Z,9212
2022-09-22T12:32:36.832Z,8964
2022-09-22T12:33:37.075Z,7696
2022-09-22T12:34:37.576Z,7496
2022-09-22T12:35:41.496Z,8148
2022-09-22T12:36:38.701Z,8496
2022-09-22T12:37:38.921Z,9136
2022-09-22T12:38:39.542Z,8824
2022-09-22T12:39:39.766Z,8884
2022-09-22T12:40:39.940Z,8792
2022-09-22T12:41:40.269Z,8304
2022-09-22T12:42:40.919Z,8504
2022-09-22T12:43:41.102Z,7912
2022-09-22T12:44:42.320Z,7792
2022-09-22T12:45:42.740Z,7936
2022-09-22T12:46:42.802Z,7276
2022-09-22T12:47:43.425Z,6976
2022-09-22T12:48:45.055Z,7092
2022-09-22T12:49:44.993Z,8008
2022-09-22T12:50:46.207Z,7920
2022-09-22T12:51:46.561Z,8116
2022-09-22T12:52:47.869Z,8228
2022-09-22T12:53:54.475Z,7656
2022-09-22T12:54:49.475Z,6696
2022-09-22T12:55:50.096Z,7176
2022-09-22T12:56:50.318Z,7728
2022-09-22T12:57:51.369Z,7944
2022-09-22T12:58:51.791Z,7832
2022-09-22T12:59:52.142Z,7908
2022-09-22T13:00:52.882Z,8056
2022-09-22T13:01:53.405Z,7916
2022-09-22T13:02:53.240Z,7876
2022-09-22T13:03:53.919Z,7904
2022-09-22T13:04:54.115Z,7700
2022-09-22T13:05:58.221Z,7756
2022-09-22T13:06:55.830Z,7788
2022-09-22T13:07:57.084Z,7620
2022-09-22T13:08:58.102Z,7976
2022-09-22T13:09:58.743Z,7972
2022-09-22T13:10:58.717Z,8000
2022-09-22T13:12:00.219Z,8528
2022-09-22T13:13:00.162Z,8548
2022-09-22T13:14:01.382Z,8540
2022-09-22T13:15:01.834Z,8404
2022-09-22T13:16:02.462Z,8132
2022-09-22T13:17:02.891Z,7960
2022-09-22T13:18:02.638Z,7628
2022-09-22T13:19:03.680Z,7516
2022-09-22T13:20:04.431Z,7428
2022-09-22T13:21:04.447Z,7356
2022-09-22T13:22:04.663Z,7408
2022-09-22T13:23:04.562Z,7496
2022-09-22T13:24:05.544Z,7556
2022-09-22T13:25:06.111Z,7600
2022-09-22T13:26:06.327Z,7568
2022-09-22T13:27:06.526Z,7388
2022-09-22T13:28:06.812Z,7212
2022-09-22T13:29:07.509Z,7152
2022-09-22T13:30:07.789Z,7076
2022-09-22T13:31:12.241Z,7064
2022-09-22T13:32:09.241Z,7020
2022-09-22T13:33:09.769Z,7052
2022-09-22T13:34:10.052Z,6988
2022-09-22T13:35:10.547Z,6992
2022-09-22T13:36:11.063Z,6916
2022-09-22T13:37:11.258Z,6848
2022-09-22T13:38:11.755Z,6648
2022-09-22T13:39:11.524Z,6260
2022-09-22T13:40:12.586Z,5996
2022-09-22T13:41:13.299Z,5780
2022-09-22T13:42:14.195Z,5596
2022-09-22T13:43:14.812Z,5448
2022-09-22T13:44:16.016Z,5320
2022-09-22T13:45:16.006Z,5196
2022-09-22T13:46:16.444Z,5136
2022-09-22T13:47:17.041Z,5084
2022-09-22T13:48:19.287Z,5016
2022-09-22T13:49:17.459Z,4964
2022-09-22T13:50:20.057Z,4932
2022-09-22T13:51:18.694Z,4896
2022-09-22T13:52:18.922Z,4908
2022-09-22T13:53:19.270Z,4992
2022-09-22T13:54:20.468Z,5140
2022-09-22T13:55:20.703Z,5208
2022-09-22T13:56:27.631Z,5360
2022-09-22T13:57:20.532Z,5292
2022-09-22T13:58:21.740Z,4996
2022-09-22T13:59:22.190Z,4796
2022-09-22T14:00:23.390Z,4652
2022-09-22T14:01:25.575Z,4548
2022-09-22T14:02:28.315Z,4456
2022-09-22T14:03:25.078Z,4376
2022-09-22T14:04:26.609Z,4312